createdAt,value
2019-06-26T00:01:52.711Z,22.20
2019-06-26T00:06:47.398Z,22.20
2019-06-26T00:11:42.047Z,22.10
2019-06-26T00:16:36.694Z,22.20
2019-06-26T00:21:31.284Z,22.20
2019-06-26T00:26:25.899Z,22.20
2019-06-26T00:31:20.469Z,22.00
2019-06-26T00:36:15.547Z,21.90
2019-06-26T00:41:10.130Z,21.90
2019-06-26T00:46:04.720Z,21.80
2019-06-26T00:50:59.319Z,21.70
2019-06-26T00:55:55.235Z,21.80
2019-06-26T01:00:53.337Z,21.70
2019-06-26T01:05:47.992Z,21.70
2019-06-26T01:10:42.758Z,21.60
2019-06-26T01:15:37.352Z,21.60
2019-06-26T01:20:31.943Z,21.60
2019-06-26T01:25:26.541Z,21.50
2019-06-26T01:30:21.914Z,21.40
2019-06-26T01:35:16.586Z,21.30
2019-06-26T01:40:12.192Z,21.30
2019-06-26T01:45:08.405Z,21.30
2019-06-26T01:50:03.093Z,21.40
2019-06-26T01:54:57.679Z,21.30
2019-06-26T01:59:52.274Z,21.20
2019-06-26T02:04:46.869Z,21.10
2019-06-26T02:09:41.480Z,21.10
2019-06-26T02:14:36.078Z,21.10
2019-06-26T02:19:30.671Z,21.10
2019-06-26T02:24:25.253Z,21.00
2019-06-26T02:29:19.850Z,20.90
2019-06-26T02:34:14.441Z,20.90
2019-06-26T02:39:09.059Z,20.90
2019-06-26T02:44:03.751Z,20.90
2019-06-26T02:48:58.388Z,20.90
2019-06-26T02:53:52.993Z,20.90
2019-06-26T02:58:47.609Z,20.80
2019-06-26T03:03:42.251Z,20.80
2019-06-26T03:08:36.910Z,20.70
2019-06-26T03:13:31.490Z,20.70
2019-06-26T03:18:26.099Z,20.60
2019-06-26T03:23:20.704Z,20.60
2019-06-26T03:28:15.274Z,20.70
2019-06-26T03:33:09.878Z,20.50
2019-06-26T03:38:04.705Z,20.50
2019-06-26T03:42:59.292Z,20.50
2019-06-26T03:47:53.884Z,20.60
2019-06-26T03:52:48.535Z,20.70
2019-06-26T03:57:43.132Z,20.70
2019-06-26T04:02:37.728Z,20.80
2019-06-26T04:07:32.301Z,21.00
2019-06-26T04:12:26.895Z,21.40
2019-06-26T04:17:21.488Z,21.50
2019-06-26T04:22:16.123Z,22.00
2019-06-26T04:27:10.671Z,22.60
2019-06-26T04:32:05.324Z,23.40
2019-06-26T04:36:59.917Z,24.50
2019-06-26T04:41:54.510Z,24.90
2019-06-26T04:46:49.106Z,25.90
2019-06-26T04:51:43.702Z,27.10
2019-06-26T04:56:38.302Z,27.90
2019-06-26T05:01:32.887Z,28.40
2019-06-26T05:06:27.480Z,28.70
2019-06-26T05:11:22.103Z,29.20
2019-06-26T05:16:20.282Z,29.70
2019-06-26T05:21:13.004Z,29.90
2019-06-26T05:26:07.579Z,30.10
2019-06-26T05:31:02.172Z,30.60
2019-06-26T05:35:56.749Z,30.20
2019-06-26T05:40:51.451Z,30.50
2019-06-26T05:45:46.125Z,31.10
2019-06-26T05:50:40.732Z,31.90
2019-06-26T05:55:35.531Z,32.10
2019-06-26T06:00:30.129Z,32.70
2019-06-26T06:05:24.780Z,32.80
2019-06-26T06:10:20.087Z,32.60
2019-06-26T06:15:15.904Z,32.90
2019-06-26T06:20:12.513Z,33.40
2019-06-26T06:25:07.904Z,33.40
2019-06-26T06:30:02.692Z,32.70
2019-06-26T06:34:57.354Z,32.40
2019-06-26T06:39:51.956Z,31.90
2019-06-26T06:44:47.640Z,31.80
2019-06-26T06:49:42.296Z,31.60
2019-06-26T06:54:37.184Z,31.50
2019-06-26T06:59:34.556Z,31.30
2019-06-26T07:04:29.581Z,31.30
2019-06-26T07:09:24.986Z,31.40
2019-06-26T07:14:20.782Z,31.40
2019-06-26T07:19:15.945Z,30.30
2019-06-26T07:24:10.616Z,29.50
2019-06-26T07:29:05.246Z,29.80
2019-06-26T07:34:00.035Z,30.30
2019-06-26T07:38:54.787Z,30.50
2019-06-26T07:43:54.558Z,30.90
2019-06-26T07:48:49.933Z,30.60
2019-06-26T07:53:45.490Z,29.90
2019-06-26T07:58:42.021Z,30.10
2019-06-26T08:03:38.731Z,30.50
2019-06-26T08:08:33.416Z,30.30
2019-06-26T08:13:32.969Z,30.60
2019-06-26T08:18:27.989Z,30.80
2019-06-26T08:23:22.593Z,30.70
2019-06-26T08:28:17.185Z,30.90
2019-06-26T08:33:11.763Z,30.70
2019-06-26T08:38:12.513Z,30.70
2019-06-26T08:43:02.689Z,30.80
2019-06-26T08:47:57.954Z,31.10
2019-06-26T08:52:52.613Z,31.20
2019-06-26T08:57:47.287Z,30.80
2019-06-26T09:02:43.079Z,30.90
2019-06-26T09:07:37.801Z,31.40
2019-06-26T09:12:32.386Z,31.70
2019-06-26T09:17:27.013Z,31.70
2019-06-26T09:22:21.641Z,31.60
2019-06-26T09:27:16.256Z,31.70
2019-06-26T09:32:10.995Z,31.50
2019-06-26T09:37:05.651Z,31.40
2019-06-26T09:42:01.246Z,31.40
2019-06-26T09:46:55.824Z,31.50
2019-06-26T09:51:50.562Z,31.80
2019-06-26T09:56:49.772Z,31.60
2019-06-26T10:01:44.699Z,31.70
2019-06-26T10:06:41.803Z,31.90
2019-06-26T10:11:36.818Z,31.30
2019-06-26T10:16:33.113Z,31.90
2019-06-26T10:21:30.842Z,31.80
2019-06-26T10:26:32.195Z,31.80
2019-06-26T10:31:24.991Z,32.30
2019-06-26T10:36:19.574Z,32.60
2019-06-26T10:41:14.958Z,33.00
2019-06-26T10:46:14.489Z,33.20
2019-06-26T10:51:15.204Z,33.10
2019-06-26T10:56:10.894Z,33.20
2019-06-26T11:01:10.099Z,33.50
2019-06-26T11:06:06.629Z,33.70
2019-06-26T11:11:01.393Z,33.90
2019-06-26T11:15:56.009Z,33.60
2019-06-26T11:20:51.018Z,34.00
2019-06-26T11:25:45.730Z,34.00
2019-06-26T11:30:43.682Z,33.70
2019-06-26T11:35:39.542Z,33.40
2019-06-26T11:40:34.888Z,33.60
2019-06-26T11:45:29.763Z,34.00
2019-06-26T11:50:33.461Z,34.40
2019-06-26T11:55:28.539Z,33.90
2019-06-26T12:00:25.073Z,34.10
2019-06-26T12:05:20.589Z,34.20
2019-06-26T12:10:18.996Z,34.10
2019-06-26T12:15:15.902Z,34.40
2019-06-26T12:20:18.360Z,34.40
2019-06-26T12:25:10.249Z,34.40
2019-06-26T12:30:09.698Z,34.50
2019-06-26T12:35:06.429Z,34.40
2019-06-26T12:40:08.754Z,34.00
2019-06-26T12:45:06.353Z,34.00
2019-06-26T12:50:01.177Z,34.30
2019-06-26T12:54:55.811Z,34.60
2019-06-26T12:59:57.410Z,34.20
2019-06-26T13:04:47.083Z,34.40
2019-06-26T13:09:47.566Z,34.50
2019-06-26T13:14:47.154Z,34.80
2019-06-26T13:19:42.747Z,34.70
2019-06-26T13:24:37.440Z,35.20
2019-06-26T13:29:32.147Z,35.30
2019-06-26T13:34:27.133Z,35.70
2019-06-26T13:39:22.129Z,35.80
2019-06-26T13:44:17.466Z,36.00
2019-06-26T13:49:16.470Z,36.00
2019-06-26T13:54:10.649Z,36.00
2019-06-26T13:59:08.788Z,35.80
2019-06-26T14:04:03.687Z,35.80
2019-06-26T14:08:58.865Z,35.90
2019-06-26T14:13:53.450Z,36.20
2019-06-26T14:18:48.162Z,36.40
2019-06-26T14:23:43.619Z,36.30
2019-06-26T14:28:38.295Z,36.30
2019-06-26T14:33:33.036Z,36.10
2019-06-26T14:38:27.749Z,36.20
2019-06-26T14:43:22.339Z,36.20
2019-06-26T14:48:16.972Z,36.10
2019-06-26T14:53:11.805Z,36.00
2019-06-26T14:58:06.447Z,36.00
2019-06-26T15:03:03.750Z,35.90
2019-06-26T15:07:58.828Z,35.80
2019-06-26T15:12:53.454Z,35.80
2019-06-26T15:17:48.054Z,35.70
2019-06-26T15:22:42.644Z,35.60
2019-06-26T15:27:37.341Z,35.50
2019-06-26T15:32:31.958Z,35.60
2019-06-26T15:37:26.651Z,35.70
2019-06-26T15:42:21.491Z,35.60
2019-06-26T15:47:16.481Z,35.70
2019-06-26T15:52:15.402Z,35.60
2019-06-26T15:57:07.541Z,35.60
2019-06-26T16:02:02.346Z,35.70
2019-06-26T16:06:57.018Z,35.70
2019-06-26T16:11:51.652Z,35.70
2019-06-26T16:16:48.100Z,35.60
2019-06-26T16:21:43.042Z,35.60
2019-06-26T16:26:37.703Z,35.60
2019-06-26T16:31:33.587Z,35.40
2019-06-26T16:36:28.191Z,35.20
2019-06-26T16:41:22.816Z,35.20
2019-06-26T16:46:17.451Z,35.10
2019-06-26T16:51:12.059Z,35.10
2019-06-26T16:56:06.680Z,35.00
2019-06-26T17:01:01.470Z,34.90
2019-06-26T17:05:56.327Z,34.80
2019-06-26T17:10:51.049Z,34.50
2019-06-26T17:15:45.680Z,34.20
2019-06-26T17:20:40.297Z,34.30
2019-06-26T17:25:35.036Z,34.20
2019-06-26T17:30:29.715Z,34.10
2019-06-26T17:35:24.301Z,34.20
2019-06-26T17:40:19.133Z,34.30
2019-06-26T17:45:15.335Z,34.30
2019-06-26T17:50:10.963Z,34.30
2019-06-26T17:55:09.440Z,34.40
2019-06-26T18:00:06.921Z,34.30
2019-06-26T18:05:01.941Z,34.20
2019-06-26T18:09:56.526Z,34.00
2019-06-26T18:14:51.221Z,33.60
2019-06-26T18:19:45.881Z,33.10
2019-06-26T18:24:40.494Z,33.00
2019-06-26T18:29:35.114Z,32.90
2019-06-26T18:34:29.754Z,32.80
2019-06-26T18:39:24.434Z,32.60
2019-06-26T18:44:19.069Z,32.40
2019-06-26T18:49:13.765Z,32.10
2019-06-26T18:54:08.381Z,31.70
2019-06-26T18:59:03.005Z,31.40
2019-06-26T19:03:57.576Z,31.10
2019-06-26T19:08:52.190Z,30.90
2019-06-26T19:13:46.803Z,30.60
2019-06-26T19:18:41.496Z,30.50
2019-06-26T19:23:36.091Z,30.20
2019-06-26T19:28:30.742Z,29.90
2019-06-26T19:33:25.350Z,29.60
2019-06-26T19:38:20.020Z,29.30
2019-06-26T19:43:14.701Z,29.10
2019-06-26T19:48:09.372Z,28.90
2019-06-26T19:53:04.149Z,28.60
2019-06-26T19:57:58.760Z,28.40
2019-06-26T20:02:53.420Z,28.20
2019-06-26T20:07:48.067Z,28.00
2019-06-26T20:12:43.482Z,27.80
2019-06-26T20:17:38.179Z,27.70
2019-06-26T20:22:32.764Z,27.40
2019-06-26T20:27:27.373Z,27.20
2019-06-26T20:32:21.976Z,26.90
2019-06-26T20:37:16.695Z,26.80
2019-06-26T20:42:11.351Z,26.90
2019-06-26T20:47:05.935Z,26.80
2019-06-26T20:52:00.552Z,26.70
2019-06-26T20:56:55.143Z,26.60
2019-06-26T21:01:49.833Z,26.40
2019-06-26T21:06:44.420Z,26.40
2019-06-26T21:11:39.057Z,26.30
2019-06-26T21:16:33.652Z,26.20
2019-06-26T21:21:28.258Z,25.90
2019-06-26T21:26:22.871Z,25.90
2019-06-26T21:31:17.474Z,25.80
2019-06-26T21:36:12.069Z,25.70
2019-06-26T21:41:06.686Z,25.50
2019-06-26T21:46:01.276Z,25.50
2019-06-26T21:50:55.888Z,25.40
2019-06-26T21:55:50.496Z,25.30
2019-06-26T22:00:45.904Z,25.10
2019-06-26T22:05:40.514Z,24.90
2019-06-26T22:10:35.286Z,24.80
2019-06-26T22:15:29.903Z,24.90
2019-06-26T22:20:24.564Z,24.80
2019-06-26T22:25:19.386Z,24.80
2019-06-26T22:30:14.902Z,24.80
2019-06-26T22:35:10.398Z,24.70
2019-06-26T22:40:07.407Z,24.60
2019-06-26T22:45:02.085Z,24.40
2019-06-26T22:49:56.750Z,24.30
2019-06-26T22:54:51.480Z,24.20
2019-06-26T22:59:46.105Z,24.20
2019-06-26T23:04:40.699Z,24.20
2019-06-26T23:09:35.324Z,24.20
2019-06-26T23:14:29.915Z,24.10
2019-06-26T23:19:24.531Z,23.90
2019-06-26T23:24:19.128Z,23.70
2019-06-26T23:29:13.751Z,23.70
2019-06-26T23:34:08.335Z,23.60
2019-06-26T23:39:03.237Z,23.60
2019-06-26T23:43:57.821Z,23.60
2019-06-26T23:48:52.428Z,23.60
2019-06-26T23:53:47.099Z,23.50
2019-06-26T23:58:41.707Z,23.50
